Time;durP1;ratioP1;P1;durP2;ratioP2;P2;SDS_P1;SDS_P2;PMS_P1;PMS_P2;Temp;Humidity;BMP_temperature;BMP_pressure;BME280_temperature;BME280_humidity;BME280_pressure;Samples;Min_cycle;Max_cycle;Signal;HPM_P1;HPM_P2
2022/03/19 14:05:02;;;;;;;9.13;2.47;;;;;;;;;;7297411;19;20194;-76
2022/03/19 14:07:32;;;;;;;7.63;2.30;;;;;;;;;;7345703;19;20015;-78
2022/03/19 14:09:58;;;;;;;5.90;2.25;;;;;;;;;;7351450;19;20334;-78
2022/03/19 14:12:40;;;;;;;9.70;2.50;;;;;;;;;;7356864;19;20453;-78
2022/03/19 14:15:06;;;;;;;6.53;2.20;;;;;;;;;;7364691;19;20507;-78
2022/03/19 14:17:47;;;;;;;5.45;1.75;;;;;;;;;;7363792;19;20014;-78
2022/03/19 14:20:12;;;;;;;6.28;1.83;;;;;;;;;;7361333;19;20011;-78
2022/03/19 14:22:37;;;;;;;5.90;1.50;;;;;;;;;;7359526;19;20845;-78
2022/03/19 14:25:03;;;;;;;4.68;1.58;;;;;;;;;;7348706;19;20550;-78
2022/03/19 14:27:28;;;;;;;4.40;1.35;;;;;;;;;;7361386;19;20014;-77
2022/03/19 14:29:54;;;;;;;5.15;1.50;;;;;;;;;;7366313;19;20399;-77
2022/03/19 14:32:19;;;;;;;6.15;1.10;;;;;;;;;;7357412;19;20025;-78
2022/03/19 14:34:44;;;;;;;6.90;1.53;;;;;;;;;;7329441;19;20416;-78
2022/03/19 14:37:11;;;;;;;3.55;1.25;;;;;;;;;;7337874;19;20784;-77
2022/03/19 14:39:36;;;;;;;7.05;1.50;;;;;;;;;;7342762;19;19995;-77
2022/03/19 14:42:02;;;;;;;4.93;1.40;;;;;;;;;;7361203;19;20567;-78
2022/03/19 14:44:27;;;;;;;7.55;1.77;;;;;;;;;;7367538;19;20592;-77
2022/03/19 14:46:53;;;;;;;5.20;1.70;;;;;;;;;;7332343;19;20625;-78
2022/03/19 14:49:18;;;;;;;13.80;2.00;;;;;;;;;;7352687;19;20231;-78
2022/03/19 14:51:43;;;;;;;7.72;2.08;;;;;;;;;;7341725;19;20608;-78
2022/03/19 14:54:08;;;;;;;4.80;1.50;;;;;;;;;;7350313;19;20014;-78
2022/03/19 14:56:36;;;;;;;8.00;1.70;;;;;;;;;;7365768;19;20912;-77
2022/03/19 14:59:01;;;;;;;9.90;2.10;;;;;;;;;;7368626;19;20596;-77
2022/03/19 15:01:29;;;;;;;6.95;1.30;;;;;;;;;;7369007;19;20496;-78
2022/03/19 15:03:54;;;;;;;6.68;1.48;;;;;;;;;;7367003;19;20094;-77
2022/03/19 15:06:20;;;;;;;4.95;1.45;;;;;;;;;;7361513;19;20090;-77
2022/03/19 15:08:45;;;;;;;7.07;1.58;;;;;;;;;;7285829;19;20763;-77
2022/03/19 15:11:10;;;;;;;17.08;2.00;;;;;;;;;;7358733;19;20063;-78
2022/03/19 15:13:35;;;;;;;6.63;1.70;;;;;;;;;;7357781;19;20030;-77
2022/03/19 15:16:01;;;;;;;13.00;1.95;;;;;;;;;;7351077;19;20082;-77
2022/03/19 15:18:29;;;;;;;10.50;1.80;;;;;;;;;;7348827;19;20457;-77
2022/03/19 15:20:55;;;;;;;4.75;1.48;;;;;;;;;;7367931;19;20165;-76
2022/03/19 15:23:20;;;;;;;4.00;1.40;;;;;;;;;;7319051;19;20089;-77
2022/03/19 15:25:45;;;;;;;7.28;1.70;;;;;;;;;;7359805;19;20026;-77
2022/03/19 15:28:11;;;;;;;8.95;1.60;;;;;;;;;;7354452;19;20014;-77
2022/03/19 15:30:37;;;;;;;8.73;2.33;;;;;;;;;;7337283;19;20013;-77
2022/03/19 15:33:02;;;;;;;5.38;1.90;;;;;;;;;;7355265;19;20074;-78
2022/03/19 15:35:27;;;;;;;4.90;1.70;;;;;;;;;;7361321;19;20014;-77
2022/03/19 15:37:53;;;;;;;8.38;1.83;;;;;;;;;;7342658;19;20007;-78
2022/03/19 15:40:18;;;;;;;6.82;1.30;;;;;;;;;;7338261;19;20461;-78
2022/03/19 15:42:43;;;;;;;5.10;1.57;;;;;;;;;;7360748;19;20011;-78
2022/03/19 15:45:10;;;;;;;5.70;1.58;;;;;;;;;;7364231;19;20285;-78
2022/03/19 15:47:37;;;;;;;8.02;1.75;;;;;;;;;;7361968;19;20476;-78
2022/03/19 15:50:06;;;;;;;6.82;1.70;;;;;;;;;;7366225;19;20047;-78
2022/03/19 15:52:31;;;;;;;5.60;1.63;;;;;;;;;;7342791;19;20007;-78
2022/03/19 15:54:56;;;;;;;8.35;1.80;;;;;;;;;;7332845;19;20025;-77
2022/03/19 15:57:22;;;;;;;5.25;1.55;;;;;;;;;;7366912;19;20507;-78
2022/03/19 15:59:47;;;;;;;7.82;2.08;;;;;;;;;;7360581;19;20005;-78
2022/03/19 16:02:12;;;;;;;6.05;1.77;;;;;;;;;;7367298;19;20032;-81
2022/03/19 16:04:37;;;;;;;6.13;1.60;;;;;;;;;;7373479;19;20026;-78
2022/03/19 16:07:03;;;;;;;7.68;1.92;;;;;;;;;;7365303;19;20022;-78
2022/03/19 16:09:28;;;;;;;5.03;1.60;;;;;;;;;;7372564;19;20404;-77
2022/03/19 16:11:53;;;;;;;7.90;1.73;;;;;;;;;;7372515;19;20409;-80
2022/03/19 16:14:18;;;;;;;5.50;1.90;;;;;;;;;;7368228;19;20266;-77
2022/03/19 16:16:43;;;;;;;7.55;2.22;;;;;;;;;;7356478;19;19998;-79
2022/03/19 16:19:09;;;;;;;6.23;1.80;;;;;;;;;;7372286;19;20010;-79
2022/03/19 16:21:34;;;;;;;8.52;2.00;;;;;;;;;;7372339;19;20235;-78
2022/03/19 16:23:59;;;;;;;4.60;1.50;;;;;;;;;;7368301;19;20023;-80
2022/03/19 16:26:24;;;;;;;4.60;1.45;;;;;;;;;;7371835;19;20334;-79
2022/03/19 16:28:50;;;;;;;4.07;1.40;;;;;;;;;;7376552;19;20074;-79
2022/03/19 16:31:15;;;;;;;5.82;1.50;;;;;;;;;;7377755;19;20638;-79
2022/03/19 16:33:40;;;;;;;9.05;1.50;;;;;;;;;;7360215;19;20003;-79
2022/03/19 16:36:06;;;;;;;9.05;2.15;;;;;;;;;;7373190;19;20557;-78
2022/03/19 16:38:32;;;;;;;8.03;1.40;;;;;;;;;;7369191;19;20473;-78
2022/03/19 16:40:58;;;;;;;5.03;1.30;;;;;;;;;;7368633;19;20267;-77
2022/03/19 16:43:25;;;;;;;6.23;1.20;;;;;;;;;;7374579;19;20009;-78
2022/03/19 16:45:50;;;;;;;8.70;1.48;;;;;;;;;;7367370;19;20267;-80
2022/03/19 16:48:15;;;;;;;5.80;1.20;;;;;;;;;;7350784;19;20022;-80
2022/03/19 16:50:41;;;;;;;5.07;1.25;;;;;;;;;;7326630;19;20514;-77
2022/03/19 16:53:06;;;;;;;8.07;1.40;;;;;;;;;;7358224;19;20011;-77
2022/03/19 16:55:31;;;;;;;6.93;1.47;;;;;;;;;;7360975;19;20622;-78
2022/03/19 16:57:56;;;;;;;9.30;1.45;;;;;;;;;;7361806;19;20259;-77
2022/03/19 17:00:21;;;;;;;10.30;1.50;;;;;;;;;;7366586;19;20019;-78
2022/03/19 17:02:47;;;;;;;9.35;1.42;;;;;;;;;;7366333;19;20003;-79
2022/03/19 17:05:12;;;;;;;3.92;1.10;;;;;;;;;;7343007;19;20023;-78
2022/03/19 17:07:37;;;;;;;5.95;1.67;;;;;;;;;;7364434;19;20479;-77
2022/03/19 17:10:07;;;;;;;6.45;1.70;;;;;;;;;;7363075;19;20010;-77
2022/03/19 17:12:32;;;;;;;5.13;1.35;;;;;;;;;;7368672;19;20023;-77
2022/03/19 17:14:58;;;;;;;5.57;1.52;;;;;;;;;;7365210;19;20023;-77
2022/03/19 17:17:26;;;;;;;4.75;1.45;;;;;;;;;;7369142;19;20009;-77
2022/03/19 17:19:51;;;;;;;8.38;1.90;;;;;;;;;;7368972;19;20042;-78
2022/03/19 17:22:17;;;;;;;5.28;1.65;;;;;;;;;;7365656;19;20490;-79
2022/03/19 17:24:42;;;;;;;6.07;1.45;;;;;;;;;;7361684;19;20015;-77
2022/03/19 17:27:07;;;;;;;8.20;2.67;;;;;;;;;;7366829;19;20403;-78
2022/03/19 17:29:32;;;;;;;10.85;4.35;;;;;;;;;;7366638;19;20274;-77
2022/03/19 17:31:57;;;;;;;10.27;3.55;;;;;;;;;;7366715;19;20022;-77
2022/03/19 17:34:23;;;;;;;15.77;4.30;;;;;;;;;;7364039;19;20002;-78
2022/03/19 17:36:48;;;;;;;15.60;5.18;;;;;;;;;;7365277;19;20671;-77
2022/03/19 17:39:13;;;;;;;6.80;1.70;;;;;;;;;;7334171;19;20598;-77
2022/03/19 17:41:38;;;;;;;10.95;3.10;;;;;;;;;;7349996;19;20018;-80
2022/03/19 17:44:03;;;;;;;9.07;3.10;;;;;;;;;;7352507;19;20061;-76
2022/03/19 17:46:29;;;;;;;7.35;2.00;;;;;;;;;;7354624;19;20235;-77
2022/03/19 17:48:54;;;;;;;6.07;1.80;;;;;;;;;;7367637;19;20019;-78
2022/03/19 17:51:19;;;;;;;9.98;2.28;;;;;;;;;;7352695;19;20361;-79
2022/03/19 17:53:45;;;;;;;6.10;1.60;;;;;;;;;;7358733;19;20452;-77
2022/03/19 17:56:10;;;;;;;7.30;1.75;;;;;;;;;;7366312;19;19994;-79
2022/03/19 17:58:35;;;;;;;8.52;2.08;;;;;;;;;;7364502;19;20335;-77
2022/03/19 18:01:01;;;;;;;6.97;1.92;;;;;;;;;;7368907;19;20037;-77
2022/03/19 18:03:26;;;;;;;13.57;1.48;;;;;;;;;;7357553;19;20003;-78
2022/03/19 18:05:51;;;;;;;6.80;1.92;;;;;;;;;;7362261;19;20034;-77
2022/03/19 18:08:16;;;;;;;6.47;1.70;;;;;;;;;;7366072;19;20020;-78
2022/03/19 18:10:41;;;;;;;6.88;1.83;;;;;;;;;;7363414;19;20085;-76
2022/03/19 18:13:06;;;;;;;10.95;2.00;;;;;;;;;;7362821;19;20037;-77
2022/03/19 18:15:32;;;;;;;6.38;1.75;;;;;;;;;;7363179;19;20014;-77
2022/03/19 18:17:57;;;;;;;8.90;2.45;;;;;;;;;;7367871;19;20006;-78
2022/03/19 18:20:22;;;;;;;8.93;2.30;;;;;;;;;;7363934;19;19999;-76
2022/03/19 18:22:52;;;;;;;8.63;2.33;;;;;;;;;;7371916;19;20023;-78
2022/03/19 18:25:18;;;;;;;9.13;1.77;;;;;;;;;;7373230;19;20058;-77
2022/03/19 18:27:43;;;;;;;13.43;3.85;;;;;;;;;;7373562;19;20455;-76
2022/03/19 18:30:09;;;;;;;6.32;2.10;;;;;;;;;;7375244;19;20017;-76
2022/03/19 18:32:35;;;;;;;8.57;2.25;;;;;;;;;;7372868;19;20386;-76
2022/03/19 18:35:00;;;;;;;10.25;2.20;;;;;;;;;;7369543;19;20042;-75
2022/03/19 18:37:26;;;;;;;7.70;2.10;;;;;;;;;;7370415;19;20024;-75
2022/03/19 18:39:54;;;;;;;9.55;2.47;;;;;;;;;;7372077;19;20352;-75
2022/03/19 18:42:20;;;;;;;8.63;2.40;;;;;;;;;;7376729;19;19999;-77
2022/03/19 18:44:45;;;;;;;9.32;1.90;;;;;;;;;;7367503;19;20751;-77
2022/03/19 18:47:11;;;;;;;10.57;2.22;;;;;;;;;;7377121;19;20079;-76
2022/03/19 18:49:38;;;;;;;7.28;2.05;;;;;;;;;;7375141;19;20010;-76
2022/03/19 18:52:03;;;;;;;8.02;1.85;;;;;;;;;;7379244;19;20006;-75
2022/03/19 18:54:28;;;;;;;7.53;1.95;;;;;;;;;;7367820;19;19995;-77
2022/03/19 18:56:54;;;;;;;7.10;1.92;;;;;;;;;;7364406;19;20039;-76
2022/03/19 18:59:19;;;;;;;7.60;1.80;;;;;;;;;;7353667;19;20044;-78
2022/03/19 19:01:44;;;;;;;5.95;2.00;;;;;;;;;;7346785;19;20327;-73
2022/03/19 19:04:09;;;;;;;7.93;2.30;;;;;;;;;;7342523;19;20561;-75
2022/03/19 19:06:35;;;;;;;7.05;2.30;;;;;;;;;;7360809;19;20526;-76
2022/03/19 19:09:00;;;;;;;9.20;2.30;;;;;;;;;;7373093;19;20589;-74
2022/03/19 19:11:25;;;;;;;7.97;2.30;;;;;;;;;;7363014;19;20014;-77
2022/03/19 19:13:51;;;;;;;10.70;2.58;;;;;;;;;;7364268;19;20028;-74
2022/03/19 19:16:16;;;;;;;8.35;2.20;;;;;;;;;;7356336;19;20422;-76
2022/03/19 19:18:41;;;;;;;11.05;2.70;;;;;;;;;;7368125;19;20457;-79
2022/03/19 19:21:07;;;;;;;9.45;2.20;;;;;;;;;;7372197;19;20099;-73
2022/03/19 19:23:32;;;;;;;11.98;2.83;;;;;;;;;;7367700;19;20015;-78
2022/03/19 19:25:58;;;;;;;13.00;2.63;;;;;;;;;;7364611;19;20345;-78
2022/03/19 19:28:23;;;;;;;12.05;3.75;;;;;;;;;;7374365;19;20425;-76
2022/03/19 19:30:49;;;;;;;22.58;7.15;;;;;;;;;;7374885;19;20049;-73
2022/03/19 19:33:14;;;;;;;22.23;8.43;;;;;;;;;;7369529;19;19999;-80
2022/03/19 19:35:39;;;;;;;18.10;6.75;;;;;;;;;;7360844;19;20014;-80
2022/03/19 19:38:04;;;;;;;16.50;4.95;;;;;;;;;;7367166;19;20404;-74
2022/03/19 19:40:30;;;;;;;10.18;3.90;;;;;;;;;;7369752;19;20073;-75
2022/03/19 19:42:55;;;;;;;13.45;3.80;;;;;;;;;;7364827;19;20032;-76
2022/03/19 19:45:20;;;;;;;12.97;3.53;;;;;;;;;;7369394;19;20017;-78
2022/03/19 19:47:47;;;;;;;9.37;2.80;;;;;;;;;;7363208;19;20271;-76
2022/03/19 19:50:12;;;;;;;7.90;2.85;;;;;;;;;;7368906;19;20810;-73
2022/03/19 19:52:39;;;;;;;9.60;2.70;;;;;;;;;;7367408;19;20081;-74
2022/03/19 19:55:04;;;;;;;8.70;2.78;;;;;;;;;;7310890;19;20030;-75
2022/03/19 20:00:20;;;;;;;10.35;2.50;;;;;;;;;;7372663;19;20201;-80
2022/03/19 20:02:46;;;;;;;8.55;2.83;;;;;;;;;;7334502;19;20011;-76
2022/03/19 20:05:11;;;;;;;14.05;2.80;;;;;;;;;;7364517;19;20493;-73
2022/03/19 20:07:39;;;;;;;12.90;2.85;;;;;;;;;;7361910;19;20552;-76
2022/03/19 20:10:15;;;;;;;9.77;2.45;;;;;;;;;;7363696;19;20553;-76
2022/03/19 21:12:50;;;;;;;20.35;8.82;;;;;;;;;;7317724;19;20495;-89
2022/03/19 21:15:20;;;;;;;26.25;10.10;;;;;;;;;;7352743;19;20015;-84
2022/03/19 21:17:46;;;;;;;22.08;9.73;;;;;;;;;;7368093;19;19999;-81
2022/03/19 21:20:15;;;;;;;20.67;10.50;;;;;;;;;;7356196;19;20224;-84
2022/03/19 21:22:40;;;;;;;21.63;11.20;;;;;;;;;;7374374;19;20021;-84
2022/03/19 21:25:05;;;;;;;27.95;11.75;;;;;;;;;;7372199;19;20325;-85
2022/03/19 21:27:31;;;;;;;26.45;11.52;;;;;;;;;;7376745;19;20360;-87
2022/03/19 21:29:56;;;;;;;22.48;11.32;;;;;;;;;;7363607;19;20007;-88
2022/03/19 21:32:22;;;;;;;26.90;11.45;;;;;;;;;;7375304;19;20006;-89
2022/03/19 21:34:48;;;;;;;24.13;12.38;;;;;;;;;;7376706;19;20018;-83
2022/03/19 21:37:13;;;;;;;28.75;14.00;;;;;;;;;;7375808;19;20017;-91
2022/03/19 21:42:22;;;;;;;23.75;14.25;;;;;;;;;;7373277;19;20552;-91
2022/03/19 21:44:47;;;;;;;33.63;13.60;;;;;;;;;;7368040;19;20090;-81
2022/03/19 21:47:12;;;;;;;29.20;15.10;;;;;;;;;;7365810;19;20005;-85
2022/03/19 21:49:37;;;;;;;33.28;14.82;;;;;;;;;;7374744;19;20841;-79
2022/03/19 21:52:02;;;;;;;36.03;16.50;;;;;;;;;;7377637;19;20007;-84
2022/03/19 21:54:28;;;;;;;31.35;16.17;;;;;;;;;;7368686;19;20638;-84
2022/03/19 21:56:55;;;;;;;30.02;15.63;;;;;;;;;;7371396;19;20007;-81
2022/03/19 21:59:20;;;;;;;32.75;16.65;;;;;;;;;;7373719;19;20018;-83
2022/03/19 22:01:45;;;;;;;34.53;17.95;;;;;;;;;;7360413;19;20030;-86
2022/03/19 22:04:12;;;;;;;31.13;16.50;;;;;;;;;;7373897;19;20584;-86
2022/03/19 22:06:38;;;;;;;32.40;17.23;;;;;;;;;;7376956;19;20042;-82
2022/03/19 22:09:04;;;;;;;35.42;18.45;;;;;;;;;;7371727;19;20006;-83
2022/03/19 22:11:29;;;;;;;33.55;18.17;;;;;;;;;;7376743;19;20014;-85
2022/03/19 22:13:54;;;;;;;38.47;18.70;;;;;;;;;;7368723;19;20034;-88
2022/03/19 22:16:19;;;;;;;38.08;18.70;;;;;;;;;;7377818;19;20019;-83
2022/03/19 22:18:45;;;;;;;34.42;18.25;;;;;;;;;;7369708;19;19999;-86
2022/03/19 22:21:10;;;;;;;37.17;17.90;;;;;;;;;;7367430;19;20018;-84
2022/03/19 22:23:35;;;;;;;38.15;19.33;;;;;;;;;;7370255;19;20022;-86
2022/03/19 22:26:01;;;;;;;37.13;19.98;;;;;;;;;;7373739;19;20002;-81
2022/03/19 22:28:26;;;;;;;35.40;20.15;;;;;;;;;;7375425;19;20090;-85
2022/03/19 22:30:52;;;;;;;37.00;20.33;;;;;;;;;;7377069;19;20010;-84
2022/03/19 22:33:17;;;;;;;40.13;20.90;;;;;;;;;;7374167;19;20021;-81
2022/03/19 22:35:43;;;;;;;40.05;22.80;;;;;;;;;;7350433;19;20010;-84
2022/03/19 22:38:08;;;;;;;39.35;21.13;;;;;;;;;;7372991;19;20584;-82
2022/03/19 22:40:33;;;;;;;39.85;21.70;;;;;;;;;;7368694;19;20014;-84
2022/03/19 22:42:58;;;;;;;36.85;21.80;;;;;;;;;;7365672;19;20013;-83
2022/03/19 22:45:24;;;;;;;41.00;22.77;;;;;;;;;;7371618;19;20033;-81
2022/03/19 22:47:49;;;;;;;38.70;22.52;;;;;;;;;;7373568;19;20003;-86
2022/03/19 22:50:15;;;;;;;40.85;23.35;;;;;;;;;;7372013;19;20014;-80
2022/03/19 22:52:43;;;;;;;36.38;21.70;;;;;;;;;;7368461;19;20010;-82
2022/03/19 22:55:09;;;;;;;38.78;22.08;;;;;;;;;;7360002;19;20033;-81
2022/03/19 22:57:34;;;;;;;43.33;23.38;;;;;;;;;;7374903;19;20584;-82
2022/03/19 22:59:59;;;;;;;37.25;22.55;;;;;;;;;;7375972;19;20045;-83
2022/03/19 23:02:29;;;;;;;40.35;23.55;;;;;;;;;;7372693;19;20002;-84
2022/03/19 23:04:54;;;;;;;42.15;23.85;;;;;;;;;;7375229;19;20011;-81
2022/03/19 23:07:20;;;;;;;41.80;25.17;;;;;;;;;;7376069;19;20856;-84
2022/03/19 23:09:46;;;;;;;49.30;26.00;;;;;;;;;;7367649;19;20256;-81
2022/03/19 23:12:11;;;;;;;41.58;24.70;;;;;;;;;;7373114;19;20049;-82
2022/03/19 23:14:37;;;;;;;45.05;24.15;;;;;;;;;;7369230;19;20014;-83
2022/03/19 23:17:03;;;;;;;50.63;25.73;;;;;;;;;;7379101;19;20105;-84
2022/03/19 23:19:28;;;;;;;47.53;25.50;;;;;;;;;;7375108;19;20006;-82
2022/03/19 23:21:53;;;;;;;42.55;24.05;;;;;;;;;;7371990;19;20010;-80
2022/03/19 23:24:19;;;;;;;42.70;24.83;;;;;;;;;;7371308;19;20327;-87
2022/03/19 23:26:44;;;;;;;42.78;24.58;;;;;;;;;;7374019;19;20243;-81
2022/03/19 23:29:09;;;;;;;41.33;25.13;;;;;;;;;;7377929;19;20011;-85
2022/03/19 23:31:35;;;;;;;47.70;26.00;;;;;;;;;;7374467;19;20638;-84
2022/03/19 23:34:01;;;;;;;49.08;24.95;;;;;;;;;;7371344;19;20477;-82
2022/03/19 23:36:26;;;;;;;39.88;24.02;;;;;;;;;;7376241;19;20018;-84
2022/03/19 23:38:51;;;;;;;43.67;26.17;;;;;;;;;;7374225;19;19998;-86
2022/03/19 23:41:16;;;;;;;50.65;28.30;;;;;;;;;;7372495;19;20248;-84
2022/03/19 23:43:41;;;;;;;40.63;25.35;;;;;;;;;;7375303;19;20474;-84
2022/03/19 23:46:07;;;;;;;44.45;27.27;;;;;;;;;;7373353;19;20490;-85
2022/03/19 23:48:32;;;;;;;51.70;26.88;;;;;;;;;;7375699;19;20007;-83
2022/03/19 23:50:58;;;;;;;45.80;26.23;;;;;;;;;;7373633;19;20794;-87
2022/03/19 23:53:24;;;;;;;46.40;25.58;;;;;;;;;;7370943;19;20379;-83
2022/03/19 23:55:49;;;;;;;41.45;25.02;;;;;;;;;;7371931;19;20018;-84
2022/03/19 23:58:15;;;;;;;47.33;26.27;;;;;;;;;;7377372;19;20041;-82
